Airfield :
LOGIN :

Register | Disclaimer

   EN    FR    IT 

 










Legend :    VFR   Marginal VFR   IFR   Intensive IFR   Very Intensive IFR
Visi :
Ceiling :
>= 8 km
>= 3000ft
5 to 8 km
1000 to 3000 ft
1500m to 5 km
500 to 1000 ft
800 to 1500m
200 to 500 ft
< 800m
< 200 ft
Symbols :   Thunderstorms  Fog  Heavy snow  Heavy precipitations  Wind > 20 kt
SIGMETs :     Misc.  Thunderstorms  Icing  Turbulence  Mountain Waves  Volcanic Ashes






- Airport Elevation : 0 ft


ENOA - Oseberg A Platform

CURRENT METAR :
  • 021650Z 18030KT 9999 FEW015 BKN075 15/13 Q1008 W///S3

EXPIRED METARs :
  • 021550Z 17029KT 9000 VCSH FEW009 BKN012 14/13 Q1008 W///S3
  • 021520Z 16025KT 9000 -SHRA BKN010 14/13 Q1008 RESHRA W///S3
  • 021447Z 16024KT 7000 VCSH OVC008 14/12 Q1009 RESHRA W///S3
  • 020250Z 19023KT 9999 SCT010 BKN055 13/12 Q1009 W///S3
  • 021420Z 16020KT 5000 -RA SCT009 BKN035 14/13 Q1009 W///S3

TAF ENOA
Valid from the 02 at 15:00 until the 03 at 15:00 UTC


0215/0315 17025KT 9999 FEW010 SCT025
TEMPO 0215/0307 4000 SHRA BR BKN008 SCT020CB
BECMG 0300/0303 23018KT
PROB40
TEMPO 0307/0315 BKN012



MET'MAP, your aeronautical weather chart ! - Copyright ORBIFLY December 2007 - Disclaimer

ORBIFLY MET'MAP TEAM :

Programming & Development : Alexandra Zaïnal
Original concept : Baudouin d'Aumeries
Technical & hardware support : Manuel Goepfert
Assistance : Marc-Olivier Méhu




SOURCES & CREDITS :

   NOAA